WMT4HV LIPH-LATI
Flight info
| Callsign | WMT4HV |
|---|---|
| Flight time | N/A |
| Altitude | 18000 |
| Route | INBUT5B INBUT N503 LAREN Q561 AKADO/N0339F190 L615 TULIK/N0427F350 DCT ROTAR DCT PUL DCT EBITA DCT ZDA DCT TIKSA DCT BALHA DCT MOKUN DCT TIBRI DCT PETAK |
| Aircraft | A21N/M-SDE1E2E3FGIJ1J4RWXY/LB1 |
Departure
| Time | 2026-04-27 19:55 |
|---|---|
| Airport | Treviso Airport (LIPH) |
Arrival
| Time | N/A |
|---|---|
| Airport | Tirana International Airport Mother Teresa (LATI) |
| Time | Latitude | Longitude | Altitude | Speed | Heading |
|---|---|---|---|---|---|
| 2026-04-27 19:10 | 45.65407 | 12.20540 | 68 ft | 0 kts | 340° |
| 2026-04-27 19:11 | 45.65406 | 12.20540 | 68 ft | 0 kts | 340° |
| 2026-04-27 19:18 | 45.65406 | 12.20541 | 68 ft | 0 kts | 340° |
| 2026-04-27 19:43 | 45.65405 | 12.20541 | 68 ft | 0 kts | 340° |
| 2026-04-27 19:46 | 45.65403 | 12.20542 | 61 ft | 3 kts | 340° |
| 2026-04-27 19:46 | 45.65378 | 12.20553 | 58 ft | 4 kts | 354° |
| 2026-04-27 19:46 | 45.65353 | 12.20550 | 60 ft | 4 kts | 31° |
| 2026-04-27 19:47 | 45.65343 | 12.20534 | 66 ft | 0 kts | 69° |
| 2026-04-27 19:51 | 45.65345 | 12.20542 | 65 ft | 3 kts | 69° |
| 2026-04-27 19:51 | 45.65357 | 12.20588 | 63 ft | 6 kts | 70° |
| 2026-04-27 19:51 | 45.65375 | 12.20657 | 68 ft | 8 kts | 70° |
| 2026-04-27 19:51 | 45.65381 | 12.20689 | 62 ft | 3 kts | 86° |
| 2026-04-27 19:52 | 45.65364 | 12.20723 | 61 ft | 5 kts | 140° |
| 2026-04-27 19:52 | 45.65341 | 12.20743 | 66 ft | 2 kts | 155° |
| 2026-04-27 19:52 | 45.65333 | 12.20747 | 67 ft | 0 kts | 158° |
| 2026-04-27 19:53 | 45.65331 | 12.20748 | 62 ft | 2 kts | 159° |
| 2026-04-27 19:53 | 45.65300 | 12.20763 | 66 ft | 7 kts | 158° |
| 2026-04-27 19:53 | 45.65239 | 12.20792 | 67 ft | 11 kts | 178° |
| 2026-04-27 19:54 | 45.65205 | 12.20743 | 63 ft | 1 kts | 249° |
| 2026-04-27 19:54 | 45.65201 | 12.20730 | 63 ft | 10 kts | 249° |
| 2026-04-27 19:54 | 45.65091 | 12.20310 | 67 ft | 85 kts | 248° |
| 2026-04-27 19:54 | 45.64795 | 12.19195 | 67 ft | 155 kts | 248° |
| 2026-04-27 19:55 | 45.64403 | 12.17718 | 655 ft | 156 kts | 248° |
| 2026-04-27 19:55 | 45.63959 | 12.16315 | 1257 ft | 159 kts | 242° |
| 2026-04-27 19:55 | 45.63493 | 12.14852 | 1859 ft | 162 kts | 245° |